sensor_id;sensor_type;location;lat;lon;timestamp;P1;durP1;ratioP1;P2;durP2;ratioP2
76459;SDS011;65299;46.084;18.762;2023-03-12T00:00:39;2.20;;;0.97;;
76459;SDS011;65299;46.084;18.762;2023-03-12T00:03:40;2.03;;;1.10;;
76459;SDS011;65299;46.084;18.762;2023-03-12T00:06:41;3.73;;;1.43;;
76459;SDS011;65299;46.084;18.762;2023-03-12T00:09:41;2.77;;;1.07;;
76459;SDS011;65299;46.084;18.762;2023-03-12T00:12:42;4.53;;;1.58;;
76459;SDS011;65299;46.084;18.762;2023-03-12T00:15:42;2.07;;;1.30;;
76459;SDS011;65299;46.084;18.762;2023-03-12T00:18:43;2.40;;;1.30;;
76459;SDS011;65299;46.084;18.762;2023-03-12T00:21:46;3.65;;;2.10;;
76459;SDS011;65299;46.084;18.762;2023-03-12T00:24:53;3.70;;;1.63;;
76459;SDS011;65299;46.084;18.762;2023-03-12T00:27:55;3.40;;;1.47;;
76459;SDS011;65299;46.084;18.762;2023-03-12T00:30:56;3.28;;;1.30;;
76459;SDS011;65299;46.084;18.762;2023-03-12T00:33:57;3.53;;;1.47;;
76459;SDS011;65299;46.084;18.762;2023-03-12T00:36:59;5.03;;;1.70;;
76459;SDS011;65299;46.084;18.762;2023-03-12T00:39:59;2.97;;;1.40;;
76459;SDS011;65299;46.084;18.762;2023-03-12T00:43:00;2.47;;;1.10;;
76459;SDS011;65299;46.084;18.762;2023-03-12T00:46:01;3.42;;;1.15;;
76459;SDS011;65299;46.084;18.762;2023-03-12T00:49:01;2.30;;;1.10;;
76459;SDS011;65299;46.084;18.762;2023-03-12T00:52:02;2.53;;;1.17;;
76459;SDS011;65299;46.084;18.762;2023-03-12T00:55:03;2.17;;;1.00;;
76459;SDS011;65299;46.084;18.762;2023-03-12T00:58:04;3.20;;;1.40;;
76459;SDS011;65299;46.084;18.762;2023-03-12T01:01:05;2.43;;;1.30;;
76459;SDS011;65299;46.084;18.762;2023-03-12T01:04:05;2.33;;;0.98;;
76459;SDS011;65299;46.084;18.762;2023-03-12T01:07:06;2.27;;;1.20;;
76459;SDS011;65299;46.084;18.762;2023-03-12T01:10:06;4.07;;;1.50;;
76459;SDS011;65299;46.084;18.762;2023-03-12T01:13:08;2.42;;;1.23;;
76459;SDS011;65299;46.084;18.762;2023-03-12T01:16:08;0.87;;;0.23;;
76459;SDS011;65299;46.084;18.762;2023-03-12T01:19:09;1.77;;;0.35;;
76459;SDS011;65299;46.084;18.762;2023-03-12T01:22:10;2.42;;;1.15;;
76459;SDS011;65299;46.084;18.762;2023-03-12T01:25:10;2.17;;;1.27;;
76459;SDS011;65299;46.084;18.762;2023-03-12T01:28:11;3.10;;;1.10;;
76459;SDS011;65299;46.084;18.762;2023-03-12T01:31:13;1.63;;;0.80;;
76459;SDS011;65299;46.084;18.762;2023-03-12T01:34:15;2.33;;;0.88;;
76459;SDS011;65299;46.084;18.762;2023-03-12T01:37:16;2.03;;;1.20;;
76459;SDS011;65299;46.084;18.762;2023-03-12T01:40:18;2.53;;;1.17;;
76459;SDS011;65299;46.084;18.762;2023-03-12T01:46:31;2.72;;;1.30;;
76459;SDS011;65299;46.084;18.762;2023-03-12T01:49:34;2.67;;;1.20;;
76459;SDS011;65299;46.084;18.762;2023-03-12T01:52:35;3.07;;;1.40;;
76459;SDS011;65299;46.084;18.762;2023-03-12T01:55:37;3.05;;;1.05;;
76459;SDS011;65299;46.084;18.762;2023-03-12T01:58:38;3.07;;;1.17;;
76459;SDS011;65299;46.084;18.762;2023-03-12T02:01:44;3.30;;;0.95;;
76459;SDS011;65299;46.084;18.762;2023-03-12T02:04:45;3.05;;;1.13;;
76459;SDS011;65299;46.084;18.762;2023-03-12T02:07:46;2.05;;;1.05;;
76459;SDS011;65299;46.084;18.762;2023-03-12T02:10:47;1.27;;;0.50;;
76459;SDS011;65299;46.084;18.762;2023-03-12T02:13:47;4.00;;;1.10;;
76459;SDS011;65299;46.084;18.762;2023-03-12T02:16:48;2.10;;;0.90;;
76459;SDS011;65299;46.084;18.762;2023-03-12T02:26:25;4.68;;;1.70;;
76459;SDS011;65299;46.084;18.762;2023-03-12T02:29:28;2.63;;;1.27;;
76459;SDS011;65299;46.084;18.762;2023-03-12T02:32:33;5.33;;;1.90;;
76459;SDS011;65299;46.084;18.762;2023-03-12T02:35:37;3.10;;;1.65;;
76459;SDS011;65299;46.084;18.762;2023-03-12T02:38:39;4.13;;;1.88;;
76459;SDS011;65299;46.084;18.762;2023-03-12T02:41:42;2.30;;;0.85;;
76459;SDS011;65299;46.084;18.762;2023-03-12T02:44:45;3.53;;;1.33;;
76459;SDS011;65299;46.084;18.762;2023-03-12T02:47:46;4.25;;;1.88;;
76459;SDS011;65299;46.084;18.762;2023-03-12T02:50:46;2.73;;;1.27;;
76459;SDS011;65299;46.084;18.762;2023-03-12T02:53:47;3.50;;;1.13;;
76459;SDS011;65299;46.084;18.762;2023-03-12T02:56:53;3.77;;;1.63;;
76459;SDS011;65299;46.084;18.762;2023-03-12T02:59:54;4.30;;;1.65;;
76459;SDS011;65299;46.084;18.762;2023-03-12T03:02:55;4.40;;;1.73;;
76459;SDS011;65299;46.084;18.762;2023-03-12T03:05:57;3.67;;;1.70;;
76459;SDS011;65299;46.084;18.762;2023-03-12T03:08:57;4.63;;;1.58;;
76459;SDS011;65299;46.084;18.762;2023-03-12T03:11:58;4.63;;;1.88;;
76459;SDS011;65299;46.084;18.762;2023-03-12T03:14:59;2.97;;;1.20;;
76459;SDS011;65299;46.084;18.762;2023-03-12T03:18:00;4.18;;;1.65;;
76459;SDS011;65299;46.084;18.762;2023-03-12T03:21:04;1.88;;;0.65;;
76459;SDS011;65299;46.084;18.762;2023-03-12T03:24:06;4.70;;;2.10;;
76459;SDS011;65299;46.084;18.762;2023-03-12T03:27:07;4.47;;;2.05;;
76459;SDS011;65299;46.084;18.762;2023-03-12T03:30:08;5.77;;;2.17;;
76459;SDS011;65299;46.084;18.762;2023-03-12T03:33:09;5.13;;;2.60;;
76459;SDS011;65299;46.084;18.762;2023-03-12T03:36:10;5.13;;;1.97;;
76459;SDS011;65299;46.084;18.762;2023-03-12T03:39:13;4.27;;;1.80;;
76459;SDS011;65299;46.084;18.762;2023-03-12T03:42:14;4.93;;;2.35;;
76459;SDS011;65299;46.084;18.762;2023-03-12T03:45:14;5.13;;;2.17;;
76459;SDS011;65299;46.084;18.762;2023-03-12T03:48:15;3.50;;;1.73;;
76459;SDS011;65299;46.084;18.762;2023-03-12T03:51:15;4.13;;;2.03;;
76459;SDS011;65299;46.084;18.762;2023-03-12T03:54:16;5.93;;;3.03;;
76459;SDS011;65299;46.084;18.762;2023-03-12T03:57:17;5.30;;;2.40;;
76459;SDS011;65299;46.084;18.762;2023-03-12T04:00:18;7.57;;;2.90;;
76459;SDS011;65299;46.084;18.762;2023-03-12T04:03:18;6.65;;;3.15;;
76459;SDS011;65299;46.084;18.762;2023-03-12T04:06:19;5.30;;;2.57;;
76459;SDS011;65299;46.084;18.762;2023-03-12T04:09:19;6.00;;;3.00;;
76459;SDS011;65299;46.084;18.762;2023-03-12T04:12:20;5.27;;;2.30;;
76459;SDS011;65299;46.084;18.762;2023-03-12T04:15:23;5.63;;;2.60;;
76459;SDS011;65299;46.084;18.762;2023-03-12T04:18:23;4.17;;;2.10;;
76459;SDS011;65299;46.084;18.762;2023-03-12T04:21:24;5.73;;;2.50;;
76459;SDS011;65299;46.084;18.762;2023-03-12T04:24:24;7.22;;;2.72;;
76459;SDS011;65299;46.084;18.762;2023-03-12T04:27:24;6.30;;;2.77;;
76459;SDS011;65299;46.084;18.762;2023-03-12T04:30:25;5.83;;;2.50;;
76459;SDS011;65299;46.084;18.762;2023-03-12T04:33:26;6.53;;;2.80;;
76459;SDS011;65299;46.084;18.762;2023-03-12T04:36:28;5.22;;;2.55;;
76459;SDS011;65299;46.084;18.762;2023-03-12T04:39:29;6.63;;;3.10;;
76459;SDS011;65299;46.084;18.762;2023-03-12T04:42:29;6.17;;;2.70;;
76459;SDS011;65299;46.084;18.762;2023-03-12T04:45:30;4.80;;;2.20;;
76459;SDS011;65299;46.084;18.762;2023-03-12T04:48:31;7.00;;;2.63;;
76459;SDS011;65299;46.084;18.762;2023-03-12T04:51:32;4.60;;;2.30;;
76459;SDS011;65299;46.084;18.762;2023-03-12T04:54:32;5.82;;;2.53;;
76459;SDS011;65299;46.084;18.762;2023-03-12T04:57:33;6.77;;;3.37;;
76459;SDS011;65299;46.084;18.762;2023-03-12T05:00:33;10.27;;;3.58;;
76459;SDS011;65299;46.084;18.762;2023-03-12T05:03:34;5.83;;;2.63;;
76459;SDS011;65299;46.084;18.762;2023-03-12T05:06:35;5.93;;;2.63;;
76459;SDS011;65299;46.084;18.762;2023-03-12T05:09:35;10.38;;;4.53;;
76459;SDS011;65299;46.084;18.762;2023-03-12T05:12:35;11.10;;;3.90;;
76459;SDS011;65299;46.084;18.762;2023-03-12T05:15:36;7.57;;;3.20;;
76459;SDS011;65299;46.084;18.762;2023-03-12T05:18:36;6.57;;;2.75;;
76459;SDS011;65299;46.084;18.762;2023-03-12T05:21:38;14.57;;;3.03;;
76459;SDS011;65299;46.084;18.762;2023-03-12T05:24:41;6.45;;;2.85;;
76459;SDS011;65299;46.084;18.762;2023-03-12T05:27:41;6.73;;;2.93;;
76459;SDS011;65299;46.084;18.762;2023-03-12T05:30:42;6.20;;;2.80;;
76459;SDS011;65299;46.084;18.762;2023-03-12T05:33:42;4.93;;;2.60;;
76459;SDS011;65299;46.084;18.762;2023-03-12T05:36:43;7.10;;;2.72;;
76459;SDS011;65299;46.084;18.762;2023-03-12T05:39:43;6.33;;;2.80;;
76459;SDS011;65299;46.084;18.762;2023-03-12T05:42:47;6.57;;;3.10;;
76459;SDS011;65299;46.084;18.762;2023-03-12T05:45:47;7.47;;;2.70;;
76459;SDS011;65299;46.084;18.762;2023-03-12T05:48:48;5.75;;;2.70;;
76459;SDS011;65299;46.084;18.762;2023-03-12T05:51:49;5.20;;;2.77;;
76459;SDS011;65299;46.084;18.762;2023-03-12T05:54:51;6.57;;;2.67;;
76459;SDS011;65299;46.084;18.762;2023-03-12T05:57:52;8.68;;;2.58;;
76459;SDS011;65299;46.084;18.762;2023-03-12T06:00:52;7.57;;;3.57;;
76459;SDS011;65299;46.084;18.762;2023-03-12T06:03:53;8.40;;;3.07;;
76459;SDS011;65299;46.084;18.762;2023-03-12T06:06:53;5.60;;;2.83;;
76459;SDS011;65299;46.084;18.762;2023-03-12T06:09:54;6.27;;;3.20;;
76459;SDS011;65299;46.084;18.762;2023-03-12T06:12:54;4.27;;;2.27;;
76459;SDS011;65299;46.084;18.762;2023-03-12T06:16:03;6.70;;;3.33;;
76459;SDS011;65299;46.084;18.762;2023-03-12T06:19:05;6.30;;;2.97;;
76459;SDS011;65299;46.084;18.762;2023-03-12T06:22:06;8.68;;;3.40;;
76459;SDS011;65299;46.084;18.762;2023-03-12T06:25:07;8.30;;;3.40;;
76459;SDS011;65299;46.084;18.762;2023-03-12T06:28:08;2.60;;;1.48;;
76459;SDS011;65299;46.084;18.762;2023-03-12T06:31:09;4.60;;;2.50;;
76459;SDS011;65299;46.084;18.762;2023-03-12T06:34:09;4.63;;;2.28;;
76459;SDS011;65299;46.084;18.762;2023-03-12T06:37:10;7.27;;;3.37;;
76459;SDS011;65299;46.084;18.762;2023-03-12T06:40:10;7.60;;;3.33;;
76459;SDS011;65299;46.084;18.762;2023-03-12T06:43:12;7.95;;;3.80;;
76459;SDS011;65299;46.084;18.762;2023-03-12T06:46:13;5.87;;;2.97;;
76459;SDS011;65299;46.084;18.762;2023-03-12T06:49:16;7.53;;;3.42;;
76459;SDS011;65299;46.084;18.762;2023-03-12T06:52:17;4.40;;;2.33;;
76459;SDS011;65299;46.084;18.762;2023-03-12T06:55:17;3.37;;;1.43;;
76459;SDS011;65299;46.084;18.762;2023-03-12T06:58:18;4.73;;;2.07;;
76459;SDS011;65299;46.084;18.762;2023-03-12T07:01:18;4.90;;;2.63;;
76459;SDS011;65299;46.084;18.762;2023-03-12T07:04:19;3.47;;;2.00;;
76459;SDS011;65299;46.084;18.762;2023-03-12T07:07:19;4.37;;;2.60;;
76459;SDS011;65299;46.084;18.762;2023-03-12T07:10:20;4.43;;;1.90;;
76459;SDS011;65299;46.084;18.762;2023-03-12T07:13:20;4.20;;;2.27;;
76459;SDS011;65299;46.084;18.762;2023-03-12T07:16:21;3.90;;;1.67;;
76459;SDS011;65299;46.084;18.762;2023-03-12T07:19:22;6.72;;;3.28;;
76459;SDS011;65299;46.084;18.762;2023-03-12T07:22:22;7.77;;;2.97;;
76459;SDS011;65299;46.084;18.762;2023-03-12T07:25:23;4.23;;;2.27;;
76459;SDS011;65299;46.084;18.762;2023-03-12T07:28:23;4.63;;;1.47;;
76459;SDS011;65299;46.084;18.762;2023-03-12T07:31:24;4.45;;;2.22;;
76459;SDS011;65299;46.084;18.762;2023-03-12T07:34:24;7.80;;;4.43;;
76459;SDS011;65299;46.084;18.762;2023-03-12T07:37:25;6.10;;;3.00;;
76459;SDS011;65299;46.084;18.762;2023-03-12T07:40:25;5.50;;;2.20;;
76459;SDS011;65299;46.084;18.762;2023-03-12T07:43:26;6.03;;;2.97;;
76459;SDS011;65299;46.084;18.762;2023-03-12T07:46:27;5.57;;;2.90;;
76459;SDS011;65299;46.084;18.762;2023-03-12T07:49:27;4.40;;;2.10;;
76459;SDS011;65299;46.084;18.762;2023-03-12T07:52:27;3.70;;;1.50;;
76459;SDS011;65299;46.084;18.762;2023-03-12T07:55:28;5.22;;;2.85;;
76459;SDS011;65299;46.084;18.762;2023-03-12T07:58:30;8.57;;;3.13;;
76459;SDS011;65299;46.084;18.762;2023-03-12T08:01:31;12.80;;;5.38;;
76459;SDS011;65299;46.084;18.762;2023-03-12T08:04:32;9.93;;;4.80;;
76459;SDS011;65299;46.084;18.762;2023-03-12T08:07:33;11.33;;;5.27;;
76459;SDS011;65299;46.084;18.762;2023-03-12T08:10:35;4.65;;;2.70;;
76459;SDS011;65299;46.084;18.762;2023-03-12T08:13:36;6.95;;;2.60;;
76459;SDS011;65299;46.084;18.762;2023-03-12T08:16:36;6.83;;;3.43;;
76459;SDS011;65299;46.084;18.762;2023-03-12T08:19:37;6.60;;;3.13;;
76459;SDS011;65299;46.084;18.762;2023-03-12T08:22:38;5.27;;;2.47;;
76459;SDS011;65299;46.084;18.762;2023-03-12T08:25:39;6.57;;;3.00;;
76459;SDS011;65299;46.084;18.762;2023-03-12T08:28:39;4.67;;;2.40;;
76459;SDS011;65299;46.084;18.762;2023-03-12T08:31:40;4.17;;;2.10;;
76459;SDS011;65299;46.084;18.762;2023-03-12T08:34:40;4.90;;;2.53;;
76459;SDS011;65299;46.084;18.762;2023-03-12T08:37:41;7.23;;;4.17;;
76459;SDS011;65299;46.084;18.762;2023-03-12T08:40:41;5.43;;;2.50;;
76459;SDS011;65299;46.084;18.762;2023-03-12T08:43:42;4.70;;;2.73;;
76459;SDS011;65299;46.084;18.762;2023-03-12T08:46:42;5.43;;;2.50;;
76459;SDS011;65299;46.084;18.762;2023-03-12T08:49:43;6.30;;;2.63;;
76459;SDS011;65299;46.084;18.762;2023-03-12T08:52:43;4.93;;;2.83;;
76459;SDS011;65299;46.084;18.762;2023-03-12T08:55:44;9.90;;;5.53;;
76459;SDS011;65299;46.084;18.762;2023-03-12T08:58:44;2.13;;;1.27;;
76459;SDS011;65299;46.084;18.762;2023-03-12T09:01:45;4.73;;;1.87;;
76459;SDS011;65299;46.084;18.762;2023-03-12T09:04:48;5.65;;;2.38;;
76459;SDS011;65299;46.084;18.762;2023-03-12T09:07:49;4.80;;;2.07;;
76459;SDS011;65299;46.084;18.762;2023-03-12T09:10:50;4.35;;;2.35;;
76459;SDS011;65299;46.084;18.762;2023-03-12T09:13:50;5.60;;;2.87;;
76459;SDS011;65299;46.084;18.762;2023-03-12T09:16:51;4.13;;;2.60;;
76459;SDS011;65299;46.084;18.762;2023-03-12T09:19:51;5.63;;;2.67;;
76459;SDS011;65299;46.084;18.762;2023-03-12T09:22:52;3.03;;;1.50;;
76459;SDS011;65299;46.084;18.762;2023-03-12T09:25:52;2.78;;;1.55;;
76459;SDS011;65299;46.084;18.762;2023-03-12T09:28:53;6.00;;;3.30;;
76459;SDS011;65299;46.084;18.762;2023-03-12T09:31:55;7.15;;;3.45;;
76459;SDS011;65299;46.084;18.762;2023-03-12T09:34:56;4.67;;;2.20;;
76459;SDS011;65299;46.084;18.762;2023-03-12T09:37:57;9.67;;;5.10;;
76459;SDS011;65299;46.084;18.762;2023-03-12T09:40:57;3.40;;;1.95;;
76459;SDS011;65299;46.084;18.762;2023-03-12T09:47:56;2.67;;;1.02;;
76459;SDS011;65299;46.084;18.762;2023-03-12T09:50:51;4.53;;;1.70;;
76459;SDS011;65299;46.084;18.762;2023-03-12T09:53:54;4.88;;;3.08;;
76459;SDS011;65299;46.084;18.762;2023-03-12T09:56:59;3.67;;;1.20;;
76459;SDS011;65299;46.084;18.762;2023-03-12T10:00:03;3.25;;;1.67;;
76459;SDS011;65299;46.084;18.762;2023-03-12T10:03:08;3.75;;;1.92;;
76459;SDS011;65299;46.084;18.762;2023-03-12T10:06:52;6.20;;;3.25;;
76459;SDS011;65299;46.084;18.762;2023-03-12T10:13:29;5.57;;;3.00;;
76459;SDS011;65299;46.084;18.762;2023-03-12T10:16:46;6.18;;;2.83;;
76459;SDS011;65299;46.084;18.762;2023-03-12T10:20:05;4.40;;;2.17;;
76459;SDS011;65299;46.084;18.762;2023-03-12T10:26:46;3.92;;;1.88;;
76459;SDS011;65299;46.084;18.762;2023-03-12T10:29:49;5.20;;;2.13;;
76459;SDS011;65299;46.084;18.762;2023-03-12T10:32:54;2.17;;;0.77;;
76459;SDS011;65299;46.084;18.762;2023-03-12T10:35:57;6.10;;;1.90;;
76459;SDS011;65299;46.084;18.762;2023-03-12T10:38:58;4.40;;;1.97;;
76459;SDS011;65299;46.084;18.762;2023-03-12T10:41:59;4.95;;;2.00;;
76459;SDS011;65299;46.084;18.762;2023-03-12T10:45:09;3.63;;;1.85;;
76459;SDS011;65299;46.084;18.762;2023-03-12T10:48:18;5.00;;;3.05;;
76459;SDS011;65299;46.084;18.762;2023-03-12T10:51:20;7.73;;;3.27;;
76459;SDS011;65299;46.084;18.762;2023-03-12T10:54:32;4.53;;;2.08;;
76459;SDS011;65299;46.084;18.762;2023-03-12T10:57:38;4.33;;;2.60;;
76459;SDS011;65299;46.084;18.762;2023-03-12T11:00:39;4.63;;;2.78;;
76459;SDS011;65299;46.084;18.762;2023-03-12T11:03:40;5.50;;;2.13;;
76459;SDS011;65299;46.084;18.762;2023-03-12T11:06:42;2.80;;;1.63;;
76459;SDS011;65299;46.084;18.762;2023-03-12T11:10:22;4.95;;;2.30;;
76459;SDS011;65299;46.084;18.762;2023-03-12T11:13:38;5.60;;;3.22;;
76459;SDS011;65299;46.084;18.762;2023-03-12T11:16:40;4.43;;;2.72;;
76459;SDS011;65299;46.084;18.762;2023-03-12T11:19:40;4.57;;;2.83;;
76459;SDS011;65299;46.084;18.762;2023-03-12T11:22:41;4.47;;;2.03;;
76459;SDS011;65299;46.084;18.762;2023-03-12T11:25:41;3.53;;;1.60;;
76459;SDS011;65299;46.084;18.762;2023-03-12T11:28:43;4.23;;;2.27;;
76459;SDS011;65299;46.084;18.762;2023-03-12T11:32:09;3.63;;;1.75;;
76459;SDS011;65299;46.084;18.762;2023-03-12T11:35:20;5.85;;;3.08;;
76459;SDS011;65299;46.084;18.762;2023-03-12T11:38:42;3.88;;;1.90;;
76459;SDS011;65299;46.084;18.762;2023-03-12T11:55:30;5.38;;;2.40;;
76459;SDS011;65299;46.084;18.762;2023-03-12T12:23:15;4.93;;;2.33;;
76459;SDS011;65299;46.084;18.762;2023-03-12T12:29:54;5.15;;;2.20;;
76459;SDS011;65299;46.084;18.762;2023-03-12T12:36:14;3.50;;;1.70;;
76459;SDS011;65299;46.084;18.762;2023-03-12T12:39:24;3.25;;;2.03;;
76459;SDS011;65299;46.084;18.762;2023-03-12T12:42:34;6.00;;;2.67;;
76459;SDS011;65299;46.084;18.762;2023-03-12T12:45:43;5.40;;;2.10;;
76459;SDS011;65299;46.084;18.762;2023-03-12T12:48:49;4.22;;;2.17;;
76459;SDS011;65299;46.084;18.762;2023-03-12T12:51:55;5.60;;;3.07;;
76459;SDS011;65299;46.084;18.762;2023-03-12T12:55:02;6.57;;;2.95;;
76459;SDS011;65299;46.084;18.762;2023-03-12T12:58:26;6.00;;;3.50;;
76459;SDS011;65299;46.084;18.762;2023-03-12T13:01:33;7.90;;;3.25;;
76459;SDS011;65299;46.084;18.762;2023-03-12T13:04:36;3.83;;;2.45;;
76459;SDS011;65299;46.084;18.762;2023-03-12T13:07:38;10.73;;;4.97;;
76459;SDS011;65299;46.084;18.762;2023-03-12T13:10:39;3.33;;;1.42;;
76459;SDS011;65299;46.084;18.762;2023-03-12T13:17:07;3.00;;;1.97;;
76459;SDS011;65299;46.084;18.762;2023-03-12T13:20:20;2.95;;;1.73;;
76459;SDS011;65299;46.084;18.762;2023-03-12T13:33:41;6.30;;;1.90;;
76459;SDS011;65299;46.084;18.762;2023-03-12T13:36:45;3.53;;;1.77;;
76459;SDS011;65299;46.084;18.762;2023-03-12T13:39:47;5.20;;;1.90;;
76459;SDS011;65299;46.084;18.762;2023-03-12T13:42:49;4.00;;;2.20;;
76459;SDS011;65299;46.084;18.762;2023-03-12T13:46:20;4.57;;;2.05;;
76459;SDS011;65299;46.084;18.762;2023-03-12T13:49:33;5.57;;;2.60;;
76459;SDS011;65299;46.084;18.762;2023-03-12T13:52:45;3.42;;;1.50;;
76459;SDS011;65299;46.084;18.762;2023-03-12T13:56:24;3.70;;;1.73;;
76459;SDS011;65299;46.084;18.762;2023-03-12T13:59:18;4.00;;;1.83;;
76459;SDS011;65299;46.084;18.762;2023-03-12T14:02:22;4.28;;;2.22;;
76459;SDS011;65299;46.084;18.762;2023-03-12T14:05:26;4.65;;;2.28;;
76459;SDS011;65299;46.084;18.762;2023-03-12T14:18:17;4.07;;;2.40;;
76459;SDS011;65299;46.084;18.762;2023-03-12T14:21:21;3.95;;;2.00;;
76459;SDS011;65299;46.084;18.762;2023-03-12T14:24:27;5.05;;;2.15;;
76459;SDS011;65299;46.084;18.762;2023-03-12T14:27:32;5.00;;;2.23;;
76459;SDS011;65299;46.084;18.762;2023-03-12T14:37:51;4.55;;;1.98;;
76459;SDS011;65299;46.084;18.762;2023-03-12T14:41:05;7.60;;;1.75;;
76459;SDS011;65299;46.084;18.762;2023-03-12T14:44:22;4.03;;;1.90;;
76459;SDS011;65299;46.084;18.762;2023-03-12T14:47:25;3.15;;;1.50;;
76459;SDS011;65299;46.084;18.762;2023-03-12T14:50:36;2.75;;;1.50;;
76459;SDS011;65299;46.084;18.762;2023-03-12T14:53:39;3.75;;;1.38;;
76459;SDS011;65299;46.084;18.762;2023-03-12T14:56:39;9.77;;;3.50;;
76459;SDS011;65299;46.084;18.762;2023-03-12T14:59:43;5.13;;;2.38;;
76459;SDS011;65299;46.084;18.762;2023-03-12T15:02:53;4.88;;;2.10;;
76459;SDS011;65299;46.084;18.762;2023-03-12T15:05:57;3.90;;;2.20;;
76459;SDS011;65299;46.084;18.762;2023-03-12T15:08:59;5.10;;;3.03;;
76459;SDS011;65299;46.084;18.762;2023-03-12T15:12:04;4.43;;;2.17;;
76459;SDS011;65299;46.084;18.762;2023-03-12T15:15:07;4.45;;;1.65;;
76459;SDS011;65299;46.084;18.762;2023-03-12T15:18:31;3.95;;;1.98;;
76459;SDS011;65299;46.084;18.762;2023-03-12T15:21:32;4.85;;;2.15;;
76459;SDS011;65299;46.084;18.762;2023-03-12T15:24:36;4.63;;;2.20;;
76459;SDS011;65299;46.084;18.762;2023-03-12T15:27:38;6.57;;;3.42;;
76459;SDS011;65299;46.084;18.762;2023-03-12T15:30:38;4.50;;;2.07;;
76459;SDS011;65299;46.084;18.762;2023-03-12T15:33:40;5.72;;;2.40;;
76459;SDS011;65299;46.084;18.762;2023-03-12T15:36:46;5.63;;;3.03;;
76459;SDS011;65299;46.084;18.762;2023-03-12T15:39:49;7.85;;;3.78;;
76459;SDS011;65299;46.084;18.762;2023-03-12T15:42:52;5.63;;;3.10;;
76459;SDS011;65299;46.084;18.762;2023-03-12T15:46:02;3.40;;;1.97;;
76459;SDS011;65299;46.084;18.762;2023-03-12T15:49:10;3.72;;;1.80;;
76459;SDS011;65299;46.084;18.762;2023-03-12T15:52:28;3.58;;;2.10;;
76459;SDS011;65299;46.084;18.762;2023-03-12T15:55:32;3.78;;;2.13;;
76459;SDS011;65299;46.084;18.762;2023-03-12T15:58:36;11.65;;;4.50;;
76459;SDS011;65299;46.084;18.762;2023-03-12T16:02:11;12.57;;;4.30;;
76459;SDS011;65299;46.084;18.762;2023-03-12T16:05:09;14.25;;;5.82;;
76459;SDS011;65299;46.084;18.762;2023-03-12T16:08:14;8.27;;;3.38;;
76459;SDS011;65299;46.084;18.762;2023-03-12T16:11:24;6.57;;;2.53;;
76459;SDS011;65299;46.084;18.762;2023-03-12T16:14:31;4.53;;;2.15;;
76459;SDS011;65299;46.084;18.762;2023-03-12T16:17:35;8.27;;;3.60;;
76459;SDS011;65299;46.084;18.762;2023-03-12T16:20:35;15.50;;;6.10;;
76459;SDS011;65299;46.084;18.762;2023-03-12T16:23:36;14.05;;;5.97;;
76459;SDS011;65299;46.084;18.762;2023-03-12T16:26:47;17.37;;;7.43;;
76459;SDS011;65299;46.084;18.762;2023-03-12T16:29:51;30.92;;;12.15;;
76459;SDS011;65299;46.084;18.762;2023-03-12T16:32:51;37.83;;;13.87;;
76459;SDS011;65299;46.084;18.762;2023-03-12T16:35:52;34.85;;;12.60;;
76459;SDS011;65299;46.084;18.762;2023-03-12T16:38:53;28.73;;;10.80;;
76459;SDS011;65299;46.084;18.762;2023-03-12T16:41:54;28.85;;;11.23;;
76459;SDS011;65299;46.084;18.762;2023-03-12T16:44:54;28.73;;;10.47;;
76459;SDS011;65299;46.084;18.762;2023-03-12T16:47:59;32.50;;;11.20;;
76459;SDS011;65299;46.084;18.762;2023-03-12T16:51:01;22.20;;;7.70;;
76459;SDS011;65299;46.084;18.762;2023-03-12T16:54:02;18.48;;;8.07;;
76459;SDS011;65299;46.084;18.762;2023-03-12T16:57:03;25.58;;;8.63;;
76459;SDS011;65299;46.084;18.762;2023-03-12T17:00:04;17.47;;;8.23;;
76459;SDS011;65299;46.084;18.762;2023-03-12T17:03:10;18.08;;;7.28;;
76459;SDS011;65299;46.084;18.762;2023-03-12T17:06:18;14.90;;;7.20;;
76459;SDS011;65299;46.084;18.762;2023-03-12T17:09:23;15.20;;;6.87;;
76459;SDS011;65299;46.084;18.762;2023-03-12T17:15:54;17.90;;;7.80;;
76459;SDS011;65299;46.084;18.762;2023-03-12T17:18:55;25.05;;;12.15;;
76459;SDS011;65299;46.084;18.762;2023-03-12T17:21:55;28.20;;;12.32;;
76459;SDS011;65299;46.084;18.762;2023-03-12T17:24:56;26.40;;;13.30;;
76459;SDS011;65299;46.084;18.762;2023-03-12T17:27:57;31.15;;;13.25;;
76459;SDS011;65299;46.084;18.762;2023-03-12T17:30:58;30.43;;;13.10;;
76459;SDS011;65299;46.084;18.762;2023-03-12T17:33:58;36.15;;;14.30;;
76459;SDS011;65299;46.084;18.762;2023-03-12T17:37:02;31.33;;;12.73;;
76459;SDS011;65299;46.084;18.762;2023-03-12T17:40:03;41.92;;;17.38;;
76459;SDS011;65299;46.084;18.762;2023-03-12T17:43:08;47.42;;;18.38;;
76459;SDS011;65299;46.084;18.762;2023-03-12T17:46:09;45.27;;;17.23;;
76459;SDS011;65299;46.084;18.762;2023-03-12T17:49:09;43.50;;;16.10;;
76459;SDS011;65299;46.084;18.762;2023-03-12T17:52:10;43.03;;;17.03;;
76459;SDS011;65299;46.084;18.762;2023-03-12T17:55:12;49.45;;;16.80;;
76459;SDS011;65299;46.084;18.762;2023-03-12T17:58:13;59.83;;;20.33;;
76459;SDS011;65299;46.084;18.762;2023-03-12T18:01:14;66.70;;;22.93;;
76459;SDS011;65299;46.084;18.762;2023-03-12T18:04:15;56.03;;;20.30;;
76459;SDS011;65299;46.084;18.762;2023-03-12T18:07:16;59.78;;;20.42;;
76459;SDS011;65299;46.084;18.762;2023-03-12T18:10:16;39.07;;;16.17;;
76459;SDS011;65299;46.084;18.762;2023-03-12T18:13:17;43.03;;;15.13;;
76459;SDS011;65299;46.084;18.762;2023-03-12T18:16:17;37.70;;;15.77;;
76459;SDS011;65299;46.084;18.762;2023-03-12T18:19:18;49.13;;;20.63;;
76459;SDS011;65299;46.084;18.762;2023-03-12T18:22:19;61.15;;;25.73;;
76459;SDS011;65299;46.084;18.762;2023-03-12T18:25:19;73.93;;;27.93;;
76459;SDS011;65299;46.084;18.762;2023-03-12T18:28:20;73.15;;;28.88;;
76459;SDS011;65299;46.084;18.762;2023-03-12T18:31:21;63.17;;;25.03;;
76459;SDS011;65299;46.084;18.762;2023-03-12T18:34:21;55.50;;;23.58;;
76459;SDS011;65299;46.084;18.762;2023-03-12T18:37:22;58.47;;;24.63;;
76459;SDS011;65299;46.084;18.762;2023-03-12T18:40:22;49.13;;;22.10;;
76459;SDS011;65299;46.084;18.762;2023-03-12T18:43:23;52.20;;;21.88;;
76459;SDS011;65299;46.084;18.762;2023-03-12T18:46:23;42.17;;;19.37;;
76459;SDS011;65299;46.084;18.762;2023-03-12T18:49:24;47.07;;;21.97;;
76459;SDS011;65299;46.084;18.762;2023-03-12T18:52:24;49.17;;;22.77;;
76459;SDS011;65299;46.084;18.762;2023-03-12T18:55:25;66.67;;;26.87;;
76459;SDS011;65299;46.084;18.762;2023-03-12T18:58:26;80.23;;;31.70;;
76459;SDS011;65299;46.084;18.762;2023-03-12T19:01:27;64.22;;;25.85;;
76459;SDS011;65299;46.084;18.762;2023-03-12T19:04:27;56.22;;;23.13;;
76459;SDS011;65299;46.084;18.762;2023-03-12T19:07:28;47.70;;;22.03;;
76459;SDS011;65299;46.084;18.762;2023-03-12T19:10:28;51.77;;;23.20;;
76459;SDS011;65299;46.084;18.762;2023-03-12T19:13:29;52.20;;;23.13;;
76459;SDS011;65299;46.084;18.762;2023-03-12T19:16:29;49.87;;;23.30;;
76459;SDS011;65299;46.084;18.762;2023-03-12T19:19:30;52.78;;;21.92;;
76459;SDS011;65299;46.084;18.762;2023-03-12T19:22:31;44.43;;;20.40;;
76459;SDS011;65299;46.084;18.762;2023-03-12T19:25:31;43.57;;;20.60;;
76459;SDS011;65299;46.084;18.762;2023-03-12T19:28:32;47.75;;;21.42;;
76459;SDS011;65299;46.084;18.762;2023-03-12T19:31:33;46.60;;;19.53;;
76459;SDS011;65299;46.084;18.762;2023-03-12T19:34:33;57.55;;;23.25;;
76459;SDS011;65299;46.084;18.762;2023-03-12T19:37:34;60.67;;;25.17;;
76459;SDS011;65299;46.084;18.762;2023-03-12T19:40:34;52.33;;;22.90;;